ASA115 PADK-PADU
Flight info
| Callsign | ASA115 |
|---|---|
| Flight time | 1h 17m |
| Altitude | 17000 |
| Route | SIYNY G8 DUT |
| Aircraft | DH8D/M-SDE2E3FGRY/H |
Departure
| Time | 2026-05-01 13:32 |
|---|---|
| Airport | Adak Airport (PADK) |
Arrival
| Time | 2026-05-01 14:49 |
|---|---|
| Airport | Tom Madsen (Dutch Harbor) Airport (PADU) |
| Time | Latitude | Longitude | Altitude | Speed | Heading |
|---|---|---|---|---|---|
| 2026-05-01 13:07 | 51.87711 | -176.64339 | 16 ft | 0 kts | 287° |
| 2026-05-01 13:27 | 51.87711 | -176.64340 | 15 ft | 1 kts | 287° |
| 2026-05-01 13:27 | 51.87719 | -176.64372 | 15 ft | 4 kts | 295° |
| 2026-05-01 13:27 | 51.87740 | -176.64430 | 13 ft | 4 kts | 305° |
| 2026-05-01 13:28 | 51.87894 | -176.64395 | 12 ft | 12 kts | 14° |
| 2026-05-01 13:28 | 51.87975 | -176.64357 | 13 ft | 11 kts | 18° |
| 2026-05-01 13:29 | 51.88166 | -176.64331 | 10 ft | 18 kts | 356° |
| 2026-05-01 13:29 | 51.88258 | -176.64537 | 9 ft | 20 kts | 242° |
| 2026-05-01 13:30 | 51.87917 | -176.65483 | 17 ft | 20 kts | 226° |
| 2026-05-01 13:31 | 51.87917 | -176.65527 | 18 ft | 1 kts | 63° |
| 2026-05-01 13:31 | 51.89023 | -176.62161 | 491 ft | 165 kts | 63° |
| 2026-05-01 13:32 | 51.89639 | -176.58247 | 1437 ft | 201 kts | 68° |
| 2026-05-01 13:33 | 51.91239 | -176.51559 | 3070 ft | 225 kts | 63° |
| 2026-05-01 13:33 | 51.92399 | -176.46907 | 4323 ft | 225 kts | 62° |
| 2026-05-01 13:34 | 51.93578 | -176.42207 | 5422 ft | 229 kts | 62° |
| 2026-05-01 13:34 | 51.94783 | -176.37421 | 6484 ft | 234 kts | 62° |
| 2026-05-01 13:35 | 51.96012 | -176.32538 | 7657 ft | 235 kts | 63° |
| 2026-05-01 13:35 | 51.96632 | -176.30077 | 8209 ft | 236 kts | 63° |
| 2026-05-01 13:35 | 51.97874 | -176.25137 | 9256 ft | 243 kts | 63° |
| 2026-05-01 13:36 | 51.98514 | -176.22582 | 9805 ft | 246 kts | 65° |
| 2026-05-01 13:36 | 51.99196 | -176.19897 | 9682 ft | 272 kts | 64° |
| 2026-05-01 13:36 | 52.00700 | -176.13902 | 9710 ft | 299 kts | 64° |
| 2026-05-01 13:37 | 52.01490 | -176.10776 | 9959 ft | 301 kts | 64° |
| 2026-05-01 13:37 | 52.02280 | -176.07625 | 10239 ft | 303 kts | 66° |
| 2026-05-01 13:37 | 52.03054 | -176.04477 | 10756 ft | 296 kts | 65° |
| 2026-05-01 13:37 | 52.03824 | -176.01387 | 11007 ft | 300 kts | 65° |
| 2026-05-01 13:38 | 52.05362 | -175.95172 | 11839 ft | 295 kts | 66° |
| 2026-05-01 13:38 | 52.06134 | -175.92046 | 11944 ft | 304 kts | 65° |
| 2026-05-01 13:38 | 52.06903 | -175.88905 | 12415 ft | 300 kts | 65° |
| 2026-05-01 13:39 | 52.07678 | -175.85754 | 12875 ft | 297 kts | 65° |
| 2026-05-01 13:39 | 52.08436 | -175.82677 | 13317 ft | 296 kts | 66° |
| 2026-05-01 13:39 | 52.09201 | -175.79579 | 13771 ft | 295 kts | 65° |
| 2026-05-01 13:39 | 52.09956 | -175.76514 | 14222 ft | 295 kts | 65° |
| 2026-05-01 13:40 | 52.10717 | -175.73402 | 14685 ft | 296 kts | 65° |
| 2026-05-01 13:40 | 52.11473 | -175.70312 | 15145 ft | 296 kts | 66° |
| 2026-05-01 13:40 | 52.12236 | -175.67175 | 15607 ft | 298 kts | 66° |
| 2026-05-01 13:40 | 52.12995 | -175.64058 | 16074 ft | 298 kts | 66° |
| 2026-05-01 13:41 | 52.13747 | -175.60971 | 16543 ft | 297 kts | 66° |
| 2026-05-01 13:41 | 52.14507 | -175.57835 | 16998 ft | 296 kts | 66° |
| 2026-05-01 13:41 | 52.15255 | -175.54759 | 17442 ft | 295 kts | 66° |
| 2026-05-01 13:41 | 52.16004 | -175.51674 | 17875 ft | 293 kts | 66° |
| 2026-05-01 13:42 | 52.16747 | -175.48605 | 18336 ft | 291 kts | 66° |
| 2026-05-01 13:42 | 52.17478 | -175.45581 | 18768 ft | 290 kts | 66° |
| 2026-05-01 13:42 | 52.18248 | -175.42416 | 18399 ft | 313 kts | 66° |
| 2026-05-01 13:42 | 52.19051 | -175.39101 | 17651 ft | 317 kts | 66° |
| 2026-05-01 13:43 | 52.19850 | -175.35805 | 16892 ft | 319 kts | 66° |
| 2026-05-01 13:43 | 52.20629 | -175.32361 | 16483 ft | 322 kts | 72° |
| 2026-05-01 13:43 | 52.20726 | -175.28758 | 16414 ft | 319 kts | 97° |
| 2026-05-01 13:43 | 52.20220 | -175.25299 | 16376 ft | 319 kts | 104° |
| 2026-05-01 13:44 | 52.19537 | -175.21875 | 16392 ft | 316 kts | 107° |
| 2026-05-01 13:44 | 52.18807 | -175.18497 | 16391 ft | 315 kts | 108° |
| 2026-05-01 13:44 | 52.18069 | -175.15187 | 16409 ft | 315 kts | 108° |
| 2026-05-01 13:44 | 52.17314 | -175.11855 | 16422 ft | 316 kts | 108° |
| 2026-05-01 13:45 | 52.16771 | -175.08398 | 16330 ft | 317 kts | 91° |
| 2026-05-01 13:45 | 52.17093 | -175.04923 | 16402 ft | 312 kts | 68° |
| 2026-05-01 13:45 | 52.18160 | -175.01852 | 16474 ft | 307 kts | 54° |
| 2026-05-01 13:45 | 52.19217 | -174.98851 | 16303 ft | 314 kts | 62° |
| 2026-05-01 13:46 | 52.20121 | -174.95653 | 16407 ft | 312 kts | 63° |
| 2026-05-01 13:46 | 52.21038 | -174.92424 | 16419 ft | 312 kts | 63° |
| 2026-05-01 13:46 | 52.21955 | -174.89180 | 16395 ft | 318 kts | 64° |
| 2026-05-01 13:46 | 52.22877 | -174.85913 | 16393 ft | 321 kts | 64° |
| 2026-05-01 13:47 | 52.23817 | -174.82581 | 16388 ft | 324 kts | 64° |
| 2026-05-01 13:47 | 52.24754 | -174.79240 | 16368 ft | 327 kts | 63° |
| 2026-05-01 13:47 | 52.25710 | -174.75864 | 16381 ft | 329 kts | 64° |
| 2026-05-01 13:47 | 52.26660 | -174.72487 | 16379 ft | 331 kts | 63° |
| 2026-05-01 13:48 | 52.27622 | -174.69055 | 16381 ft | 332 kts | 63° |
| 2026-05-01 13:48 | 52.28585 | -174.65630 | 16364 ft | 333 kts | 64° |
| 2026-05-01 13:48 | 52.29539 | -174.62207 | 16390 ft | 333 kts | 63° |
| 2026-05-01 13:48 | 52.30497 | -174.58778 | 16399 ft | 333 kts | 63° |
| 2026-05-01 13:49 | 52.31465 | -174.55322 | 16302 ft | 336 kts | 63° |
| 2026-05-01 13:49 | 52.32435 | -174.51852 | 16381 ft | 334 kts | 62° |
| 2026-05-01 13:49 | 52.33396 | -174.48424 | 16435 ft | 331 kts | 63° |
| 2026-05-01 13:49 | 52.34356 | -174.44997 | 16267 ft | 338 kts | 62° |
| 2026-05-01 13:50 | 52.35318 | -174.41501 | 16386 ft | 335 kts | 63° |
| 2026-05-01 13:50 | 52.36283 | -174.38037 | 16440 ft | 333 kts | 63° |
| 2026-05-01 13:50 | 52.37247 | -174.34567 | 16319 ft | 338 kts | 64° |
| 2026-05-01 13:50 | 52.38210 | -174.31102 | 16336 ft | 338 kts | 64° |
| 2026-05-01 13:51 | 52.39182 | -174.27606 | 16359 ft | 338 kts | 64° |
| 2026-05-01 13:51 | 52.40147 | -174.24136 | 16365 ft | 338 kts | 64° |
| 2026-05-01 13:51 | 52.41117 | -174.20642 | 16366 ft | 339 kts | 64° |
| 2026-05-01 13:51 | 52.42101 | -174.17108 | 16349 ft | 339 kts | 64° |
| 2026-05-01 13:52 | 52.43064 | -174.13643 | 16353 ft | 339 kts | 64° |
| 2026-05-01 13:52 | 52.44040 | -174.10120 | 16351 ft | 340 kts | 64° |
| 2026-05-01 13:52 | 52.45021 | -174.06572 | 16354 ft | 339 kts | 64° |
| 2026-05-01 13:52 | 52.45986 | -174.03085 | 16342 ft | 340 kts | 64° |
| 2026-05-01 13:53 | 52.46955 | -173.99556 | 16343 ft | 340 kts | 63° |
| 2026-05-01 13:53 | 52.48879 | -173.92541 | 16315 ft | 339 kts | 64° |
| 2026-05-01 13:53 | 52.49847 | -173.89040 | 16338 ft | 339 kts | 64° |
| 2026-05-01 13:54 | 52.50826 | -173.85509 | 16347 ft | 339 kts | 63° |
| 2026-05-01 13:54 | 52.51796 | -173.82007 | 16347 ft | 340 kts | 64° |
| 2026-05-01 13:54 | 52.52779 | -173.78453 | 16342 ft | 340 kts | 64° |
| 2026-05-01 13:54 | 52.53747 | -173.74956 | 16338 ft | 340 kts | 64° |
| 2026-05-01 13:55 | 52.54724 | -173.71420 | 16337 ft | 340 kts | 64° |
| 2026-05-01 13:55 | 52.55697 | -173.67902 | 16343 ft | 340 kts | 63° |
| 2026-05-01 13:55 | 52.56682 | -173.64346 | 16338 ft | 340 kts | 63° |
| 2026-05-01 13:55 | 52.57657 | -173.60841 | 16334 ft | 340 kts | 64° |
| 2026-05-01 13:56 | 52.58646 | -173.57298 | 16341 ft | 339 kts | 63° |
| 2026-05-01 13:56 | 52.59618 | -173.53813 | 16350 ft | 339 kts | 63° |
| 2026-05-01 13:56 | 52.60608 | -173.50279 | 16318 ft | 340 kts | 64° |
| 2026-05-01 13:56 | 52.61574 | -173.46786 | 16342 ft | 338 kts | 63° |
| 2026-05-01 13:57 | 52.62534 | -173.43233 | 16346 ft | 337 kts | 65° |
| 2026-05-01 13:57 | 52.63441 | -173.39697 | 16284 ft | 340 kts | 65° |
| 2026-05-01 13:57 | 52.64359 | -173.36105 | 16330 ft | 338 kts | 65° |
| 2026-05-01 13:57 | 52.65268 | -173.32544 | 16308 ft | 338 kts | 66° |
| 2026-05-01 13:58 | 52.66177 | -173.28992 | 16319 ft | 338 kts | 66° |
| 2026-05-01 13:58 | 52.67078 | -173.25458 | 16316 ft | 338 kts | 66° |
| 2026-05-01 13:58 | 52.67997 | -173.21881 | 16309 ft | 339 kts | 66° |
| 2026-05-01 13:58 | 52.68907 | -173.18339 | 16315 ft | 339 kts | 66° |
| 2026-05-01 13:59 | 52.69818 | -173.14775 | 16312 ft | 339 kts | 66° |
| 2026-05-01 13:59 | 52.70747 | -173.11166 | 16312 ft | 339 kts | 66° |
| 2026-05-01 13:59 | 52.71664 | -173.07600 | 16311 ft | 340 kts | 66° |
| 2026-05-01 13:59 | 52.72590 | -173.04019 | 16307 ft | 340 kts | 66° |
| 2026-05-01 14:00 | 52.73518 | -173.00455 | 16304 ft | 341 kts | 66° |
| 2026-05-01 14:00 | 52.74453 | -172.96884 | 16307 ft | 340 kts | 66° |
| 2026-05-01 14:00 | 52.75383 | -172.93297 | 16301 ft | 341 kts | 66° |
| 2026-05-01 14:00 | 52.76317 | -172.89694 | 16296 ft | 340 kts | 66° |
| 2026-05-01 14:01 | 52.77237 | -172.86151 | 16298 ft | 340 kts | 66° |
| 2026-05-01 14:01 | 52.78171 | -172.82536 | 16308 ft | 339 kts | 66° |
| 2026-05-01 14:01 | 52.79087 | -172.78987 | 16282 ft | 339 kts | 66° |
| 2026-05-01 14:01 | 52.80019 | -172.75397 | 16287 ft | 340 kts | 66° |
| 2026-05-01 14:02 | 52.80940 | -172.71835 | 16295 ft | 340 kts | 66° |
| 2026-05-01 14:02 | 52.81866 | -172.68259 | 16291 ft | 341 kts | 66° |
| 2026-05-01 14:02 | 52.82804 | -172.64624 | 16288 ft | 342 kts | 66° |
| 2026-05-01 14:02 | 52.83735 | -172.61012 | 16285 ft | 342 kts | 66° |
| 2026-05-01 14:03 | 52.84665 | -172.57414 | 16272 ft | 341 kts | 66° |
| 2026-05-01 14:03 | 52.85587 | -172.53832 | 16292 ft | 340 kts | 66° |
| 2026-05-01 14:03 | 52.86516 | -172.50241 | 16268 ft | 341 kts | 65° |
| 2026-05-01 14:03 | 52.87446 | -172.46643 | 16280 ft | 341 kts | 66° |
| 2026-05-01 14:04 | 52.88366 | -172.43071 | 16289 ft | 341 kts | 65° |
| 2026-05-01 14:04 | 52.89301 | -172.39478 | 16297 ft | 340 kts | 66° |
| 2026-05-01 14:04 | 52.90243 | -172.35883 | 16277 ft | 341 kts | 66° |
| 2026-05-01 14:04 | 52.91184 | -172.32286 | 16275 ft | 342 kts | 66° |
| 2026-05-01 14:05 | 52.92130 | -172.28679 | 16276 ft | 342 kts | 66° |
| 2026-05-01 14:05 | 52.93076 | -172.25070 | 16286 ft | 341 kts | 66° |
| 2026-05-01 14:05 | 52.94012 | -172.21498 | 16246 ft | 342 kts | 66° |
| 2026-05-01 14:05 | 52.94955 | -172.17880 | 16272 ft | 341 kts | 66° |
| 2026-05-01 14:06 | 52.95891 | -172.14304 | 16252 ft | 342 kts | 66° |
| 2026-05-01 14:06 | 52.96841 | -172.10664 | 16232 ft | 342 kts | 66° |
| 2026-05-01 14:06 | 52.97777 | -172.07098 | 16282 ft | 340 kts | 66° |
| 2026-05-01 14:06 | 52.98714 | -172.03485 | 16247 ft | 341 kts | 67° |
| 2026-05-01 14:07 | 52.99607 | -171.99818 | 16233 ft | 342 kts | 68° |
| 2026-05-01 14:07 | 53.00480 | -171.96216 | 16276 ft | 341 kts | 67° |
| 2026-05-01 14:07 | 53.01372 | -171.92548 | 16274 ft | 342 kts | 68° |
| 2026-05-01 14:08 | 53.03142 | -171.85278 | 16259 ft | 342 kts | 68° |
| 2026-05-01 14:08 | 53.04033 | -171.81609 | 16258 ft | 341 kts | 68° |
| 2026-05-01 14:08 | 53.04918 | -171.77954 | 16251 ft | 341 kts | 68° |
| 2026-05-01 14:08 | 53.05800 | -171.74327 | 16256 ft | 342 kts | 67° |
| 2026-05-01 14:09 | 53.06690 | -171.70651 | 16264 ft | 341 kts | 68° |
| 2026-05-01 14:09 | 53.07572 | -171.67029 | 16242 ft | 342 kts | 68° |
| 2026-05-01 14:09 | 53.08464 | -171.63330 | 16219 ft | 342 kts | 68° |
| 2026-05-01 14:09 | 53.09330 | -171.59718 | 16240 ft | 342 kts | 68° |
| 2026-05-01 14:10 | 53.10217 | -171.56045 | 16244 ft | 341 kts | 68° |
| 2026-05-01 14:10 | 53.11102 | -171.52368 | 16242 ft | 341 kts | 67° |
| 2026-05-01 14:10 | 53.11980 | -171.48721 | 16243 ft | 342 kts | 68° |
| 2026-05-01 14:10 | 53.12851 | -171.45084 | 16260 ft | 341 kts | 68° |
| 2026-05-01 14:11 | 53.13733 | -171.41415 | 16257 ft | 340 kts | 68° |
| 2026-05-01 14:11 | 53.15473 | -171.34119 | 16241 ft | 340 kts | 69° |
| 2026-05-01 14:11 | 53.16340 | -171.30458 | 16243 ft | 340 kts | 69° |
| 2026-05-01 14:12 | 53.17209 | -171.26805 | 16232 ft | 341 kts | 68° |
| 2026-05-01 14:12 | 53.18084 | -171.23123 | 16203 ft | 341 kts | 68° |
| 2026-05-01 14:12 | 53.18943 | -171.19482 | 16237 ft | 340 kts | 69° |
| 2026-05-01 14:12 | 53.19808 | -171.15826 | 16247 ft | 341 kts | 69° |
| 2026-05-01 14:13 | 53.20676 | -171.12144 | 16243 ft | 341 kts | 69° |
| 2026-05-01 14:13 | 53.21257 | -171.09679 | 16236 ft | 342 kts | 69° |
| 2026-05-01 14:13 | 53.22415 | -171.04756 | 16236 ft | 343 kts | 69° |
| 2026-05-01 14:13 | 53.23273 | -171.01097 | 16236 ft | 343 kts | 68° |
| 2026-05-01 14:14 | 53.24146 | -170.97383 | 16242 ft | 343 kts | 68° |
| 2026-05-01 14:14 | 53.25020 | -170.93657 | 16239 ft | 343 kts | 68° |
| 2026-05-01 14:14 | 53.25880 | -170.89990 | 16214 ft | 344 kts | 69° |
| 2026-05-01 14:14 | 53.26751 | -170.86261 | 16259 ft | 341 kts | 68° |
| 2026-05-01 14:15 | 53.27600 | -170.82620 | 16232 ft | 342 kts | 69° |
| 2026-05-01 14:15 | 53.28464 | -170.78886 | 16230 ft | 342 kts | 68° |
| 2026-05-01 14:15 | 53.29323 | -170.75179 | 16228 ft | 343 kts | 69° |
| 2026-05-01 14:15 | 53.30179 | -170.71475 | 16224 ft | 343 kts | 69° |
| 2026-05-01 14:16 | 53.31030 | -170.67787 | 16222 ft | 343 kts | 69° |
| 2026-05-01 14:16 | 53.31885 | -170.64072 | 16213 ft | 343 kts | 68° |
| 2026-05-01 14:16 | 53.32746 | -170.60344 | 16237 ft | 341 kts | 68° |
| 2026-05-01 14:16 | 53.33590 | -170.56682 | 16200 ft | 342 kts | 69° |
| 2026-05-01 14:17 | 53.34429 | -170.52995 | 16197 ft | 341 kts | 68° |
| 2026-05-01 14:17 | 53.35285 | -170.49274 | 16254 ft | 340 kts | 68° |
| 2026-05-01 14:17 | 53.36138 | -170.45577 | 16242 ft | 340 kts | 68° |
| 2026-05-01 14:17 | 53.36972 | -170.41905 | 16232 ft | 341 kts | 69° |
| 2026-05-01 14:18 | 53.37818 | -170.38205 | 16245 ft | 342 kts | 68° |
| 2026-05-01 14:18 | 53.38654 | -170.34506 | 16235 ft | 342 kts | 69° |
| 2026-05-01 14:18 | 53.39509 | -170.30754 | 16220 ft | 342 kts | 69° |
| 2026-05-01 14:18 | 53.40061 | -170.28322 | 16217 ft | 342 kts | 70° |
| 2026-05-01 14:19 | 53.41195 | -170.23337 | 16198 ft | 342 kts | 70° |
| 2026-05-01 14:19 | 53.42026 | -170.19661 | 16213 ft | 341 kts | 70° |
| 2026-05-01 14:19 | 53.42870 | -170.15921 | 16249 ft | 340 kts | 69° |
| 2026-05-01 14:19 | 53.43706 | -170.12196 | 16228 ft | 341 kts | 69° |
| 2026-05-01 14:20 | 53.44530 | -170.08513 | 16186 ft | 342 kts | 70° |
| 2026-05-01 14:20 | 53.46196 | -170.01083 | 16227 ft | 341 kts | 69° |
| 2026-05-01 14:20 | 53.47030 | -169.97353 | 16216 ft | 342 kts | 69° |
| 2026-05-01 14:21 | 53.47864 | -169.93619 | 16217 ft | 342 kts | 69° |
| 2026-05-01 14:21 | 53.48701 | -169.89876 | 16211 ft | 342 kts | 69° |
| 2026-05-01 14:21 | 53.49529 | -169.86137 | 16215 ft | 342 kts | 69° |
| 2026-05-01 14:22 | 53.51185 | -169.78677 | 16217 ft | 341 kts | 69° |
| 2026-05-01 14:22 | 53.52000 | -169.74980 | 16214 ft | 342 kts | 69° |
| 2026-05-01 14:22 | 53.52829 | -169.71225 | 16208 ft | 342 kts | 70° |
| 2026-05-01 14:22 | 53.53649 | -169.67516 | 16212 ft | 341 kts | 70° |
| 2026-05-01 14:23 | 53.54474 | -169.63771 | 16206 ft | 340 kts | 69° |
| 2026-05-01 14:23 | 53.55296 | -169.60046 | 16221 ft | 340 kts | 69° |
| 2026-05-01 14:23 | 53.56110 | -169.56320 | 16220 ft | 340 kts | 69° |
| 2026-05-01 14:23 | 53.56916 | -169.52628 | 16219 ft | 341 kts | 69° |
| 2026-05-01 14:24 | 53.57740 | -169.48854 | 16215 ft | 341 kts | 69° |
| 2026-05-01 14:24 | 53.58554 | -169.45120 | 16215 ft | 341 kts | 69° |
| 2026-05-01 14:24 | 53.59372 | -169.41367 | 16211 ft | 340 kts | 69° |
| 2026-05-01 14:24 | 53.60183 | -169.37628 | 16206 ft | 340 kts | 69° |
| 2026-05-01 14:25 | 53.60994 | -169.33891 | 16199 ft | 340 kts | 70° |
| 2026-05-01 14:25 | 53.61791 | -169.30209 | 16194 ft | 340 kts | 70° |
| 2026-05-01 14:25 | 53.62600 | -169.26468 | 16219 ft | 339 kts | 70° |
| 2026-05-01 14:25 | 53.63408 | -169.22733 | 16209 ft | 338 kts | 69° |
| 2026-05-01 14:26 | 53.64202 | -169.19043 | 16185 ft | 339 kts | 69° |
| 2026-05-01 14:26 | 53.65797 | -169.11623 | 16211 ft | 337 kts | 70° |
| 2026-05-01 14:26 | 53.66597 | -169.07873 | 16213 ft | 339 kts | 69° |
| 2026-05-01 14:27 | 53.67386 | -169.04181 | 16193 ft | 339 kts | 69° |
| 2026-05-01 14:27 | 53.68189 | -169.00413 | 16213 ft | 340 kts | 69° |
| 2026-05-01 14:27 | 53.68980 | -168.96693 | 16204 ft | 340 kts | 70° |
| 2026-05-01 14:28 | 53.70571 | -168.89191 | 16210 ft | 339 kts | 69° |
| 2026-05-01 14:28 | 53.71361 | -168.85475 | 16198 ft | 340 kts | 69° |
| 2026-05-01 14:28 | 53.72159 | -168.81722 | 16230 ft | 338 kts | 69° |
| 2026-05-01 14:28 | 53.72940 | -168.78014 | 16192 ft | 339 kts | 69° |
| 2026-05-01 14:29 | 53.73728 | -168.74258 | 16195 ft | 338 kts | 69° |
| 2026-05-01 14:29 | 53.74517 | -168.70503 | 16184 ft | 339 kts | 69° |
| 2026-05-01 14:30 | 53.76874 | -168.59244 | 16187 ft | 342 kts | 69° |
| 2026-05-01 14:30 | 53.77656 | -168.55495 | 16196 ft | 343 kts | 70° |
| 2026-05-01 14:30 | 53.78447 | -168.51686 | 16190 ft | 343 kts | 69° |
| 2026-05-01 14:31 | 53.80030 | -168.44063 | 16187 ft | 344 kts | 70° |
| 2026-05-01 14:31 | 53.80819 | -168.40265 | 16197 ft | 344 kts | 70° |
| 2026-05-01 14:31 | 53.81597 | -168.36491 | 16201 ft | 344 kts | 70° |
| 2026-05-01 14:31 | 53.82383 | -168.32681 | 16210 ft | 344 kts | 71° |
| 2026-05-01 14:32 | 53.83174 | -168.28853 | 16198 ft | 344 kts | 70° |
| 2026-05-01 14:32 | 53.83949 | -168.25078 | 16196 ft | 343 kts | 72° |
| 2026-05-01 14:32 | 53.84731 | -168.21262 | 16225 ft | 342 kts | 70° |
| 2026-05-01 14:32 | 53.85519 | -168.17424 | 16122 ft | 345 kts | 70° |
| 2026-05-01 14:33 | 53.86286 | -168.13683 | 16205 ft | 342 kts | 71° |
| 2026-05-01 14:33 | 53.87066 | -168.09853 | 16234 ft | 341 kts | 70° |
| 2026-05-01 14:33 | 53.87844 | -168.06021 | 16138 ft | 344 kts | 71° |
| 2026-05-01 14:33 | 53.88618 | -168.02217 | 16206 ft | 343 kts | 71° |
| 2026-05-01 14:34 | 53.89394 | -167.98399 | 16225 ft | 342 kts | 71° |
| 2026-05-01 14:34 | 53.90165 | -167.94591 | 16168 ft | 344 kts | 70° |
| 2026-05-01 14:34 | 53.90937 | -167.90749 | 16168 ft | 344 kts | 70° |
| 2026-05-01 14:34 | 53.91707 | -167.86938 | 16199 ft | 343 kts | 71° |
| 2026-05-01 14:35 | 53.92473 | -167.83119 | 16207 ft | 343 kts | 70° |
| 2026-05-01 14:35 | 53.93238 | -167.79320 | 16164 ft | 344 kts | 71° |
| 2026-05-01 14:35 | 53.94006 | -167.75499 | 16210 ft | 342 kts | 70° |
| 2026-05-01 14:35 | 53.94782 | -167.71666 | 16198 ft | 341 kts | 71° |
| 2026-05-01 14:36 | 53.95549 | -167.67896 | 16175 ft | 342 kts | 70° |
| 2026-05-01 14:36 | 53.96332 | -167.64093 | 16276 ft | 340 kts | 70° |
| 2026-05-01 14:36 | 53.97111 | -167.60252 | 16184 ft | 343 kts | 70° |
| 2026-05-01 14:36 | 53.97851 | -167.56448 | 16219 ft | 342 kts | 71° |
| 2026-05-01 14:37 | 53.98593 | -167.52652 | 16398 ft | 338 kts | 71° |
| 2026-05-01 14:37 | 53.99328 | -167.48854 | 16399 ft | 340 kts | 70° |
| 2026-05-01 14:37 | 54.00068 | -167.45059 | 16246 ft | 345 kts | 70° |
| 2026-05-01 14:37 | 54.00838 | -167.41124 | 15928 ft | 349 kts | 71° |
| 2026-05-01 14:38 | 54.01587 | -167.37312 | 15370 ft | 340 kts | 70° |
| 2026-05-01 14:38 | 54.02329 | -167.33539 | 14722 ft | 336 kts | 71° |
| 2026-05-01 14:38 | 54.03048 | -167.29857 | 14337 ft | 323 kts | 72° |
| 2026-05-01 14:38 | 54.03751 | -167.26263 | 13876 ft | 317 kts | 72° |
| 2026-05-01 14:39 | 54.04439 | -167.22728 | 13224 ft | 317 kts | 72° |
| 2026-05-01 14:39 | 54.05125 | -167.19192 | 12679 ft | 313 kts | 71° |
| 2026-05-01 14:39 | 54.05797 | -167.15736 | 12135 ft | 308 kts | 71° |
| 2026-05-01 14:39 | 54.06462 | -167.12305 | 11604 ft | 304 kts | 71° |
| 2026-05-01 14:40 | 54.07115 | -167.08926 | 11062 ft | 300 kts | 72° |
| 2026-05-01 14:40 | 54.07763 | -167.05589 | 10518 ft | 297 kts | 72° |
| 2026-05-01 14:40 | 54.08400 | -167.02287 | 9979 ft | 294 kts | 72° |
| 2026-05-01 14:40 | 54.09034 | -166.98994 | 9509 ft | 288 kts | 71° |
| 2026-05-01 14:41 | 54.09658 | -166.95792 | 9072 ft | 282 kts | 71° |
| 2026-05-01 14:41 | 54.10245 | -166.92679 | 8642 ft | 277 kts | 72° |
| 2026-05-01 14:41 | 54.10837 | -166.89575 | 8196 ft | 273 kts | 71° |
| 2026-05-01 14:41 | 54.11411 | -166.86577 | 8067 ft | 259 kts | 71° |
| 2026-05-01 14:42 | 54.11952 | -166.83722 | 7888 ft | 248 kts | 71° |
| 2026-05-01 14:42 | 54.12478 | -166.80968 | 7562 ft | 246 kts | 72° |
| 2026-05-01 14:42 | 54.13005 | -166.78192 | 7176 ft | 246 kts | 71° |
| 2026-05-01 14:42 | 54.13535 | -166.75406 | 6749 ft | 248 kts | 72° |
| 2026-05-01 14:43 | 54.14064 | -166.72609 | 6335 ft | 248 kts | 72° |
| 2026-05-01 14:43 | 54.14592 | -166.69812 | 5914 ft | 250 kts | 71° |
| 2026-05-01 14:43 | 54.15118 | -166.67026 | 5483 ft | 250 kts | 72° |
| 2026-05-01 14:43 | 54.15354 | -166.64078 | 4683 ft | 256 kts | 99° |
| 2026-05-01 14:44 | 54.14598 | -166.61449 | 4107 ft | 245 kts | 136° |
| 2026-05-01 14:44 | 54.11661 | -166.59695 | 3353 ft | 219 kts | 172° |
| 2026-05-01 14:44 | 54.10200 | -166.59331 | 2971 ft | 201 kts | 173° |
| 2026-05-01 14:45 | 54.08892 | -166.59024 | 2635 ft | 181 kts | 173° |
| 2026-05-01 14:45 | 54.06575 | -166.58517 | 2117 ft | 155 kts | 174° |
| 2026-05-01 14:45 | 54.05487 | -166.58295 | 1897 ft | 162 kts | 175° |
| 2026-05-01 14:46 | 54.04328 | -166.58067 | 1674 ft | 172 kts | 175° |
| 2026-05-01 14:46 | 54.01866 | -166.57564 | 1184 ft | 180 kts | 174° |
| 2026-05-01 14:46 | 54.00634 | -166.57306 | 939 ft | 180 kts | 174° |
| 2026-05-01 14:47 | 53.99393 | -166.57048 | 698 ft | 179 kts | 174° |
| 2026-05-01 14:47 | 53.98156 | -166.56793 | 461 ft | 178 kts | 174° |
| 2026-05-01 14:47 | 53.96945 | -166.56543 | 313 ft | 172 kts | 174° |
| 2026-05-01 14:48 | 53.94717 | -166.56097 | 763 ft | 153 kts | 174° |
| 2026-05-01 14:48 | 53.93659 | -166.55914 | 1072 ft | 152 kts | 178° |
| 2026-05-01 14:48 | 53.91787 | -166.56207 | 609 ft | 131 kts | 186° |
| 2026-05-01 14:49 | 53.90167 | -166.54952 | 10 ft | 123 kts | 138° |
| 2026-05-01 14:49 | 53.89511 | -166.53867 | 40 ft | 15 kts | 130° |
| 2026-05-01 14:50 | 53.89495 | -166.53841 | 42 ft | 9 kts | 314° |
| 2026-05-01 14:50 | 53.89502 | -166.54114 | 28 ft | 0 kts | 254° |